sensor_id;sensor_type;location;lat;lon;timestamp;P1;durP1;ratioP1;P2;durP2;ratioP2
64649;SDS011;51061;45.258;38.112;2022-08-19T00:01:42;72.13;;;25.42;;
64649;SDS011;51061;45.258;38.112;2022-08-19T00:04:10;63.72;;;23.83;;
64649;SDS011;51061;45.258;38.112;2022-08-19T00:06:38;68.40;;;24.33;;
64649;SDS011;51061;45.258;38.112;2022-08-19T00:09:07;70.15;;;24.25;;
64649;SDS011;51061;45.258;38.112;2022-08-19T00:11:36;70.30;;;24.20;;
64649;SDS011;51061;45.258;38.112;2022-08-19T00:14:03;72.28;;;26.15;;
64649;SDS011;51061;45.258;38.112;2022-08-19T00:16:31;72.70;;;25.33;;
64649;SDS011;51061;45.258;38.112;2022-08-19T00:18:57;71.07;;;24.95;;
64649;SDS011;51061;45.258;38.112;2022-08-19T00:21:24;69.97;;;25.23;;
64649;SDS011;51061;45.258;38.112;2022-08-19T00:23:52;64.40;;;23.60;;
64649;SDS011;51061;45.258;38.112;2022-08-19T00:26:19;65.80;;;23.13;;
64649;SDS011;51061;45.258;38.112;2022-08-19T00:28:46;60.63;;;22.00;;
64649;SDS011;51061;45.258;38.112;2022-08-19T00:31:12;66.63;;;23.55;;
64649;SDS011;51061;45.258;38.112;2022-08-19T00:33:38;65.75;;;22.80;;
64649;SDS011;51061;45.258;38.112;2022-08-19T00:36:06;68.03;;;22.83;;
64649;SDS011;51061;45.258;38.112;2022-08-19T00:38:34;61.50;;;21.98;;
64649;SDS011;51061;45.258;38.112;2022-08-19T00:41:02;65.47;;;22.60;;
64649;SDS011;51061;45.258;38.112;2022-08-19T00:43:28;65.50;;;22.48;;
64649;SDS011;51061;45.258;38.112;2022-08-19T00:45:54;65.25;;;23.13;;
64649;SDS011;51061;45.258;38.112;2022-08-19T00:48:21;66.85;;;24.13;;
64649;SDS011;51061;45.258;38.112;2022-08-19T00:50:48;68.47;;;22.83;;
64649;SDS011;51061;45.258;38.112;2022-08-19T00:53:19;61.92;;;20.83;;
64649;SDS011;51061;45.258;38.112;2022-08-19T00:55:48;58.85;;;21.00;;
64649;SDS011;51061;45.258;38.112;2022-08-19T00:58:17;62.55;;;21.90;;
64649;SDS011;51061;45.258;38.112;2022-08-19T01:00:46;56.85;;;20.88;;
64649;SDS011;51061;45.258;38.112;2022-08-19T01:03:14;63.60;;;21.55;;
64649;SDS011;51061;45.258;38.112;2022-08-19T01:05:43;58.42;;;19.65;;
64649;SDS011;51061;45.258;38.112;2022-08-19T01:08:11;66.97;;;22.02;;
64649;SDS011;51061;45.258;38.112;2022-08-19T01:10:41;62.47;;;20.13;;
64649;SDS011;51061;45.258;38.112;2022-08-19T01:13:10;60.85;;;19.88;;
64649;SDS011;51061;45.258;38.112;2022-08-19T01:15:41;60.22;;;20.90;;
64649;SDS011;51061;45.258;38.112;2022-08-19T01:18:12;64.00;;;20.73;;
64649;SDS011;51061;45.258;38.112;2022-08-19T01:20:41;60.13;;;20.23;;
64649;SDS011;51061;45.258;38.112;2022-08-19T01:23:08;62.78;;;20.63;;
64649;SDS011;51061;45.258;38.112;2022-08-19T01:25:55;58.65;;;20.33;;
64649;SDS011;51061;45.258;38.112;2022-08-19T01:28:25;61.80;;;21.88;;
64649;SDS011;51061;45.258;38.112;2022-08-19T01:30:53;66.30;;;21.85;;
64649;SDS011;51061;45.258;38.112;2022-08-19T01:33:20;63.67;;;19.95;;
64649;SDS011;51061;45.258;38.112;2022-08-19T01:35:47;55.63;;;19.27;;
64649;SDS011;51061;45.258;38.112;2022-08-19T01:38:19;55.85;;;20.52;;
64649;SDS011;51061;45.258;38.112;2022-08-19T01:40:48;60.70;;;19.58;;
64649;SDS011;51061;45.258;38.112;2022-08-19T01:43:14;56.88;;;19.95;;
64649;SDS011;51061;45.258;38.112;2022-08-19T01:45:41;55.72;;;20.73;;
64649;SDS011;51061;45.258;38.112;2022-08-19T01:48:07;59.35;;;21.27;;
64649;SDS011;51061;45.258;38.112;2022-08-19T01:50:34;59.17;;;19.80;;
64649;SDS011;51061;45.258;38.112;2022-08-19T01:53:01;57.17;;;20.98;;
64649;SDS011;51061;45.258;38.112;2022-08-19T01:55:32;61.72;;;20.13;;
64649;SDS011;51061;45.258;38.112;2022-08-19T01:58:02;61.40;;;20.45;;
64649;SDS011;51061;45.258;38.112;2022-08-19T02:00:30;64.13;;;21.80;;
64649;SDS011;51061;45.258;38.112;2022-08-19T02:02:57;57.35;;;20.20;;
64649;SDS011;51061;45.258;38.112;2022-08-19T02:05:24;58.75;;;21.60;;
64649;SDS011;51061;45.258;38.112;2022-08-19T02:07:50;62.90;;;21.55;;
64649;SDS011;51061;45.258;38.112;2022-08-19T02:10:19;62.55;;;21.35;;
64649;SDS011;51061;45.258;38.112;2022-08-19T02:12:46;58.70;;;21.58;;
64649;SDS011;51061;45.258;38.112;2022-08-19T02:15:14;62.08;;;20.90;;
64649;SDS011;51061;45.258;38.112;2022-08-19T02:17:41;58.88;;;21.65;;
64649;SDS011;51061;45.258;38.112;2022-08-19T02:20:08;62.00;;;20.75;;
64649;SDS011;51061;45.258;38.112;2022-08-19T02:22:34;61.13;;;21.08;;
64649;SDS011;51061;45.258;38.112;2022-08-19T02:25:01;59.58;;;20.50;;
64649;SDS011;51061;45.258;38.112;2022-08-19T02:27:27;63.60;;;20.85;;
64649;SDS011;51061;45.258;38.112;2022-08-19T02:29:53;57.00;;;19.98;;
64649;SDS011;51061;45.258;38.112;2022-08-19T02:32:19;65.50;;;21.75;;
64649;SDS011;51061;45.258;38.112;2022-08-19T02:34:46;61.85;;;21.33;;
64649;SDS011;51061;45.258;38.112;2022-08-19T02:37:13;59.88;;;20.10;;
64649;SDS011;51061;45.258;38.112;2022-08-19T02:39:58;63.33;;;20.40;;
64649;SDS011;51061;45.258;38.112;2022-08-19T02:42:24;57.85;;;19.02;;
64649;SDS011;51061;45.258;38.112;2022-08-19T02:44:50;57.85;;;20.48;;
64649;SDS011;51061;45.258;38.112;2022-08-19T02:47:20;62.05;;;21.17;;
64649;SDS011;51061;45.258;38.112;2022-08-19T02:49:46;57.90;;;19.98;;
64649;SDS011;51061;45.258;38.112;2022-08-19T02:52:15;52.90;;;19.15;;
64649;SDS011;51061;45.258;38.112;2022-08-19T02:54:42;64.45;;;20.40;;
64649;SDS011;51061;45.258;38.112;2022-08-19T02:57:09;58.65;;;19.73;;
64649;SDS011;51061;45.258;38.112;2022-08-19T02:59:35;54.05;;;19.25;;
64649;SDS011;51061;45.258;38.112;2022-08-19T03:02:01;66.38;;;21.00;;
64649;SDS011;51061;45.258;38.112;2022-08-19T03:04:27;58.22;;;19.10;;
64649;SDS011;51061;45.258;38.112;2022-08-19T03:06:55;59.10;;;19.98;;
64649;SDS011;51061;45.258;38.112;2022-08-19T03:09:21;61.05;;;20.70;;
64649;SDS011;51061;45.258;38.112;2022-08-19T03:11:47;60.38;;;19.15;;
64649;SDS011;51061;45.258;38.112;2022-08-19T03:14:13;60.20;;;19.77;;
64649;SDS011;51061;45.258;38.112;2022-08-19T03:16:47;59.33;;;20.02;;
64649;SDS011;51061;45.258;38.112;2022-08-19T03:19:16;54.92;;;18.65;;
64649;SDS011;51061;45.258;38.112;2022-08-19T03:21:44;57.95;;;19.73;;
64649;SDS011;51061;45.258;38.112;2022-08-19T03:24:11;54.30;;;19.33;;
64649;SDS011;51061;45.258;38.112;2022-08-19T03:26:40;61.38;;;20.00;;
64649;SDS011;51061;45.258;38.112;2022-08-19T03:29:08;59.80;;;19.80;;
64649;SDS011;51061;45.258;38.112;2022-08-19T03:31:36;60.92;;;20.85;;
64649;SDS011;51061;45.258;38.112;2022-08-19T03:34:03;57.95;;;20.10;;
64649;SDS011;51061;45.258;38.112;2022-08-19T03:36:29;60.53;;;19.83;;
64649;SDS011;51061;45.258;38.112;2022-08-19T03:38:56;65.80;;;22.23;;
64649;SDS011;51061;45.258;38.112;2022-08-19T03:41:29;59.28;;;20.00;;
64649;SDS011;51061;45.258;38.112;2022-08-19T03:43:58;55.55;;;19.98;;
64649;SDS011;51061;45.258;38.112;2022-08-19T03:46:28;54.60;;;20.52;;
64649;SDS011;51061;45.258;38.112;2022-08-19T03:48:56;62.55;;;21.55;;
64649;SDS011;51061;45.258;38.112;2022-08-19T03:51:25;55.10;;;19.58;;
64649;SDS011;51061;45.258;38.112;2022-08-19T03:53:56;52.30;;;18.30;;
64649;SDS011;51061;45.258;38.112;2022-08-19T03:56:24;56.30;;;19.75;;
64649;SDS011;51061;45.258;38.112;2022-08-19T03:58:51;55.13;;;18.75;;
64649;SDS011;51061;45.258;38.112;2022-08-19T04:01:18;57.17;;;19.75;;
64649;SDS011;51061;45.258;38.112;2022-08-19T04:03:46;55.35;;;19.50;;
64649;SDS011;51061;45.258;38.112;2022-08-19T04:06:14;57.45;;;19.52;;
64649;SDS011;51061;45.258;38.112;2022-08-19T04:08:40;54.38;;;19.17;;
64649;SDS011;51061;45.258;38.112;2022-08-19T04:11:15;53.70;;;19.10;;
64649;SDS011;51061;45.258;38.112;2022-08-19T04:13:43;52.50;;;16.90;;
64649;SDS011;51061;45.258;38.112;2022-08-19T04:16:09;49.83;;;18.00;;
64649;SDS011;51061;45.258;38.112;2022-08-19T04:18:37;55.92;;;18.20;;
64649;SDS011;51061;45.258;38.112;2022-08-19T04:21:05;58.92;;;18.30;;
64649;SDS011;51061;45.258;38.112;2022-08-19T04:23:32;53.17;;;19.27;;
64649;SDS011;51061;45.258;38.112;2022-08-19T04:25:59;51.78;;;17.77;;
64649;SDS011;51061;45.258;38.112;2022-08-19T04:28:25;53.33;;;17.95;;
64649;SDS011;51061;45.258;38.112;2022-08-19T04:30:52;48.72;;;17.30;;
64649;SDS011;51061;45.258;38.112;2022-08-19T04:33:20;52.40;;;17.95;;
64649;SDS011;51061;45.258;38.112;2022-08-19T04:35:49;50.55;;;17.30;;
64649;SDS011;51061;45.258;38.112;2022-08-19T04:38:17;50.78;;;16.02;;
64649;SDS011;51061;45.258;38.112;2022-08-19T04:40:46;50.28;;;15.95;;
64649;SDS011;51061;45.258;38.112;2022-08-19T04:43:33;47.35;;;15.70;;
64649;SDS011;51061;45.258;38.112;2022-08-19T04:46:10;48.80;;;16.85;;
64649;SDS011;51061;45.258;38.112;2022-08-19T04:48:37;47.20;;;15.85;;
64649;SDS011;51061;45.258;38.112;2022-08-19T04:51:06;42.85;;;15.32;;
64649;SDS011;51061;45.258;38.112;2022-08-19T04:53:34;40.75;;;15.68;;
64649;SDS011;51061;45.258;38.112;2022-08-19T04:56:09;44.25;;;15.65;;
64649;SDS011;51061;45.258;38.112;2022-08-19T04:58:37;45.60;;;17.57;;
64649;SDS011;51061;45.258;38.112;2022-08-19T05:01:06;47.35;;;15.60;;
64649;SDS011;51061;45.258;38.112;2022-08-19T05:03:32;46.63;;;15.73;;
64649;SDS011;51061;45.258;38.112;2022-08-19T05:06:03;40.97;;;15.82;;
64649;SDS011;51061;45.258;38.112;2022-08-19T05:08:33;61.40;;;15.80;;
64649;SDS011;51061;45.258;38.112;2022-08-19T05:11:06;50.38;;;16.00;;
64649;SDS011;51061;45.258;38.112;2022-08-19T05:13:37;49.63;;;17.23;;
64649;SDS011;51061;45.258;38.112;2022-08-19T05:16:03;48.78;;;16.98;;
64649;SDS011;51061;45.258;38.112;2022-08-19T05:18:30;40.50;;;15.27;;
64649;SDS011;51061;45.258;38.112;2022-08-19T05:21:15;44.30;;;15.98;;
64649;SDS011;51061;45.258;38.112;2022-08-19T05:24:02;45.15;;;15.48;;
64649;SDS011;51061;45.258;38.112;2022-08-19T05:26:29;42.58;;;15.73;;
64649;SDS011;51061;45.258;38.112;2022-08-19T05:28:55;48.42;;;17.05;;
64649;SDS011;51061;45.258;38.112;2022-08-19T05:31:21;47.88;;;16.90;;
64649;SDS011;51061;45.258;38.112;2022-08-19T05:33:47;66.55;;;21.35;;
64649;SDS011;51061;45.258;38.112;2022-08-19T05:36:15;52.83;;;17.55;;
64649;SDS011;51061;45.258;38.112;2022-08-19T05:38:41;52.72;;;18.98;;
64649;SDS011;51061;45.258;38.112;2022-08-19T05:41:08;50.70;;;18.65;;
64649;SDS011;51061;45.258;38.112;2022-08-19T05:43:35;55.50;;;19.10;;
64649;SDS011;51061;45.258;38.112;2022-08-19T05:46:03;51.28;;;19.23;;
64649;SDS011;51061;45.258;38.112;2022-08-19T05:48:34;52.88;;;18.98;;
64649;SDS011;51061;45.258;38.112;2022-08-19T05:51:04;58.53;;;18.92;;
64649;SDS011;51061;45.258;38.112;2022-08-19T05:53:35;58.97;;;19.83;;
64649;SDS011;51061;45.258;38.112;2022-08-19T05:56:07;49.80;;;18.98;;
64649;SDS011;51061;45.258;38.112;2022-08-19T05:58:36;53.67;;;18.45;;
64649;SDS011;51061;45.258;38.112;2022-08-19T06:01:03;52.50;;;18.05;;
64649;SDS011;51061;45.258;38.112;2022-08-19T06:03:34;53.08;;;19.20;;
64649;SDS011;51061;45.258;38.112;2022-08-19T06:06:09;52.63;;;19.52;;
64649;SDS011;51061;45.258;38.112;2022-08-19T06:08:37;55.13;;;18.48;;
64649;SDS011;51061;45.258;38.112;2022-08-19T06:11:18;52.80;;;19.48;;
64649;SDS011;51061;45.258;38.112;2022-08-19T06:13:51;52.60;;;20.05;;
64649;SDS011;51061;45.258;38.112;2022-08-19T06:16:19;56.70;;;20.35;;
64649;SDS011;51061;45.258;38.112;2022-08-19T06:18:53;56.70;;;21.52;;
64649;SDS011;51061;45.258;38.112;2022-08-19T06:21:23;57.60;;;22.02;;
64649;SDS011;51061;45.258;38.112;2022-08-19T06:23:52;59.13;;;20.10;;
64649;SDS011;51061;45.258;38.112;2022-08-19T06:26:20;53.45;;;20.17;;
64649;SDS011;51061;45.258;38.112;2022-08-19T06:28:47;61.30;;;20.88;;
64649;SDS011;51061;45.258;38.112;2022-08-19T06:31:18;52.50;;;20.17;;
64649;SDS011;51061;45.258;38.112;2022-08-19T06:33:46;52.17;;;19.48;;
64649;SDS011;51061;45.258;38.112;2022-08-19T06:36:19;55.47;;;21.20;;
64649;SDS011;51061;45.258;38.112;2022-08-19T06:38:57;53.03;;;19.65;;
64649;SDS011;51061;45.258;38.112;2022-08-19T06:41:24;55.85;;;21.02;;
64649;SDS011;51061;45.258;38.112;2022-08-19T06:43:51;56.65;;;20.60;;
64649;SDS011;51061;45.258;38.112;2022-08-19T06:46:18;55.55;;;20.17;;
64649;SDS011;51061;45.258;38.112;2022-08-19T06:48:45;65.72;;;19.77;;
64649;SDS011;51061;45.258;38.112;2022-08-19T06:51:16;49.80;;;19.35;;
64649;SDS011;51061;45.258;38.112;2022-08-19T06:53:46;54.15;;;19.75;;
64649;SDS011;51061;45.258;38.112;2022-08-19T06:56:14;56.20;;;19.42;;
64649;SDS011;51061;45.258;38.112;2022-08-19T06:58:41;52.42;;;18.45;;
64649;SDS011;51061;45.258;38.112;2022-08-19T07:01:07;58.20;;;19.33;;
64649;SDS011;51061;45.258;38.112;2022-08-19T07:03:35;56.33;;;19.67;;
64649;SDS011;51061;45.258;38.112;2022-08-19T07:06:03;53.75;;;19.05;;
64649;SDS011;51061;45.258;38.112;2022-08-19T07:08:33;55.90;;;19.45;;
64649;SDS011;51061;45.258;38.112;2022-08-19T07:11:02;52.78;;;19.48;;
64649;SDS011;51061;45.258;38.112;2022-08-19T07:13:32;51.63;;;18.45;;
64649;SDS011;51061;45.258;38.112;2022-08-19T07:16:05;60.10;;;20.88;;
64649;SDS011;51061;45.258;38.112;2022-08-19T07:18:33;54.30;;;19.98;;
64649;SDS011;51061;45.258;38.112;2022-08-19T07:21:06;51.38;;;20.15;;
64649;SDS011;51061;45.258;38.112;2022-08-19T07:23:35;52.67;;;19.02;;
64649;SDS011;51061;45.258;38.112;2022-08-19T07:26:06;47.30;;;18.10;;
64649;SDS011;51061;45.258;38.112;2022-08-19T07:28:40;48.25;;;18.42;;
64649;SDS011;51061;45.258;38.112;2022-08-19T07:31:12;49.85;;;17.88;;
64649;SDS011;51061;45.258;38.112;2022-08-19T07:33:40;45.97;;;16.85;;
64649;SDS011;51061;45.258;38.112;2022-08-19T07:36:09;47.13;;;17.40;;
64649;SDS011;51061;45.258;38.112;2022-08-19T07:38:38;52.53;;;18.00;;
64649;SDS011;51061;45.258;38.112;2022-08-19T07:41:06;54.17;;;18.23;;
64649;SDS011;51061;45.258;38.112;2022-08-19T07:43:36;44.20;;;17.30;;
64649;SDS011;51061;45.258;38.112;2022-08-19T07:46:02;47.17;;;18.58;;
64649;SDS011;51061;45.258;38.112;2022-08-19T07:48:28;50.33;;;17.50;;
64649;SDS011;51061;45.258;38.112;2022-08-19T07:50:55;46.17;;;17.33;;
64649;SDS011;51061;45.258;38.112;2022-08-19T07:53:27;49.10;;;17.65;;
64649;SDS011;51061;45.258;38.112;2022-08-19T07:55:53;52.45;;;17.73;;
64649;SDS011;51061;45.258;38.112;2022-08-19T07:58:20;51.80;;;17.67;;
64649;SDS011;51061;45.258;38.112;2022-08-19T08:00:49;48.65;;;17.48;;
64649;SDS011;51061;45.258;38.112;2022-08-19T08:03:16;48.08;;;17.33;;
64649;SDS011;51061;45.258;38.112;2022-08-19T08:05:46;46.63;;;16.95;;
64649;SDS011;51061;45.258;38.112;2022-08-19T08:08:30;53.63;;;18.15;;
64649;SDS011;51061;45.258;38.112;2022-08-19T08:11:03;45.97;;;18.83;;
64649;SDS011;51061;45.258;38.112;2022-08-19T08:13:30;50.20;;;18.67;;
64649;SDS011;51061;45.258;38.112;2022-08-19T08:16:01;49.78;;;18.83;;
64649;SDS011;51061;45.258;38.112;2022-08-19T08:18:28;47.75;;;18.13;;
64649;SDS011;51061;45.258;38.112;2022-08-19T08:20:55;55.45;;;18.65;;
64649;SDS011;51061;45.258;38.112;2022-08-19T08:23:22;44.47;;;18.05;;
64649;SDS011;51061;45.258;38.112;2022-08-19T08:25:50;41.85;;;17.23;;
64649;SDS011;51061;45.258;38.112;2022-08-19T08:28:18;50.20;;;17.52;;
64649;SDS011;51061;45.258;38.112;2022-08-19T08:30:46;46.38;;;16.88;;
64649;SDS011;51061;45.258;38.112;2022-08-19T08:33:14;39.92;;;15.23;;
64649;SDS011;51061;45.258;38.112;2022-08-19T08:35:44;42.03;;;15.75;;
64649;SDS011;51061;45.258;38.112;2022-08-19T08:38:11;28.58;;;13.00;;
64649;SDS011;51061;45.258;38.112;2022-08-19T08:43:32;35.50;;;13.23;;
64649;SDS011;51061;45.258;38.112;2022-08-19T08:46:03;29.35;;;12.55;;
64649;SDS011;51061;45.258;38.112;2022-08-19T08:51:28;37.63;;;13.37;;
64649;SDS011;51061;45.258;38.112;2022-08-19T08:53:59;36.97;;;13.50;;
64649;SDS011;51061;45.258;38.112;2022-08-19T08:56:29;31.15;;;13.25;;
64649;SDS011;51061;45.258;38.112;2022-08-19T08:59:00;36.00;;;13.68;;
64649;SDS011;51061;45.258;38.112;2022-08-19T09:01:29;31.92;;;13.13;;
64649;SDS011;51061;45.258;38.112;2022-08-19T09:03:55;39.90;;;13.85;;
64649;SDS011;51061;45.258;38.112;2022-08-19T09:11:29;38.15;;;13.63;;
64649;SDS011;51061;45.258;38.112;2022-08-19T09:16:37;35.55;;;13.38;;
64649;SDS011;51061;45.258;38.112;2022-08-19T09:19:06;42.97;;;15.05;;
64649;SDS011;51061;45.258;38.112;2022-08-19T09:21:34;32.95;;;13.02;;
64649;SDS011;51061;45.258;38.112;2022-08-19T09:24:01;32.92;;;13.10;;
64649;SDS011;51061;45.258;38.112;2022-08-19T09:26:27;32.78;;;13.75;;
64649;SDS011;51061;45.258;38.112;2022-08-19T09:28:54;33.13;;;12.82;;
64649;SDS011;51061;45.258;38.112;2022-08-19T09:31:24;42.85;;;13.57;;
64649;SDS011;51061;45.258;38.112;2022-08-19T09:33:52;32.17;;;12.88;;
64649;SDS011;51061;45.258;38.112;2022-08-19T09:36:22;33.50;;;13.18;;
64649;SDS011;51061;45.258;38.112;2022-08-19T09:38:50;27.42;;;12.20;;
64649;SDS011;51061;45.258;38.112;2022-08-19T09:41:18;27.42;;;11.93;;
64649;SDS011;51061;45.258;38.112;2022-08-19T09:43:46;26.65;;;11.77;;
64649;SDS011;51061;45.258;38.112;2022-08-19T09:46:13;33.92;;;12.95;;
64649;SDS011;51061;45.258;38.112;2022-08-19T09:48:42;31.80;;;11.82;;
64649;SDS011;51061;45.258;38.112;2022-08-19T09:51:13;29.52;;;11.65;;
64649;SDS011;51061;45.258;38.112;2022-08-19T09:53:42;30.52;;;11.77;;
64649;SDS011;51061;45.258;38.112;2022-08-19T09:56:10;30.50;;;11.70;;
64649;SDS011;51061;45.258;38.112;2022-08-19T09:58:37;26.38;;;10.50;;
64649;SDS011;51061;45.258;38.112;2022-08-19T10:01:05;32.58;;;10.85;;
64649;SDS011;51061;45.258;38.112;2022-08-19T10:03:33;31.70;;;9.98;;
64649;SDS011;51061;45.258;38.112;2022-08-19T10:06:02;23.38;;;9.93;;
64649;SDS011;51061;45.258;38.112;2022-08-19T10:08:34;29.52;;;9.52;;
64649;SDS011;51061;45.258;38.112;2022-08-19T10:11:02;19.75;;;9.00;;
64649;SDS011;51061;45.258;38.112;2022-08-19T10:13:30;28.05;;;10.05;;
64649;SDS011;51061;45.258;38.112;2022-08-19T10:16:03;29.73;;;10.18;;
64649;SDS011;51061;45.258;38.112;2022-08-19T10:18:31;26.58;;;10.38;;
64649;SDS011;51061;45.258;38.112;2022-08-19T10:21:41;25.73;;;10.57;;
64649;SDS011;51061;45.258;38.112;2022-08-19T10:23:51;31.48;;;10.27;;
64649;SDS011;51061;45.258;38.112;2022-08-19T10:26:19;22.33;;;9.27;;
64649;SDS011;51061;45.258;38.112;2022-08-19T10:28:48;33.90;;;9.45;;
64649;SDS011;51061;45.258;38.112;2022-08-19T10:31:19;33.15;;;10.43;;
64649;SDS011;51061;45.258;38.112;2022-08-19T10:33:49;33.67;;;11.00;;
64649;SDS011;51061;45.258;38.112;2022-08-19T10:36:18;34.97;;;10.35;;
64649;SDS011;51061;45.258;38.112;2022-08-19T10:38:49;38.63;;;10.25;;
64649;SDS011;51061;45.258;38.112;2022-08-19T10:41:18;27.27;;;9.77;;
64649;SDS011;51061;45.258;38.112;2022-08-19T10:43:52;43.10;;;10.43;;
64649;SDS011;51061;45.258;38.112;2022-08-19T10:46:20;34.13;;;10.02;;
64649;SDS011;51061;45.258;38.112;2022-08-19T10:48:48;25.17;;;9.77;;
64649;SDS011;51061;45.258;38.112;2022-08-19T10:51:15;27.05;;;9.60;;
64649;SDS011;51061;45.258;38.112;2022-08-19T10:54:01;37.00;;;10.57;;
64649;SDS011;51061;45.258;38.112;2022-08-19T10:56:30;32.05;;;11.13;;
64649;SDS011;51061;45.258;38.112;2022-08-19T10:59:16;35.65;;;10.43;;
64649;SDS011;51061;45.258;38.112;2022-08-19T11:01:47;34.63;;;10.15;;
64649;SDS011;51061;45.258;38.112;2022-08-19T11:04:14;33.55;;;9.43;;
64649;SDS011;51061;45.258;38.112;2022-08-19T11:06:46;25.58;;;10.27;;
64649;SDS011;51061;45.258;38.112;2022-08-19T11:09:17;33.17;;;9.95;;
64649;SDS011;51061;45.258;38.112;2022-08-19T11:11:46;28.23;;;9.35;;
64649;SDS011;51061;45.258;38.112;2022-08-19T11:14:14;29.45;;;9.73;;
64649;SDS011;51061;45.258;38.112;2022-08-19T11:16:43;46.90;;;11.02;;
64649;SDS011;51061;45.258;38.112;2022-08-19T11:19:10;34.60;;;10.43;;
64649;SDS011;51061;45.258;38.112;2022-08-19T11:21:39;41.63;;;11.82;;
64649;SDS011;51061;45.258;38.112;2022-08-19T11:24:08;44.00;;;13.30;;
64649;SDS011;51061;45.258;38.112;2022-08-19T11:26:37;41.13;;;11.43;;
64649;SDS011;51061;45.258;38.112;2022-08-19T11:29:05;39.42;;;10.65;;
64649;SDS011;51061;45.258;38.112;2022-08-19T11:31:37;37.65;;;11.05;;
64649;SDS011;51061;45.258;38.112;2022-08-19T11:34:05;38.67;;;11.05;;
64649;SDS011;51061;45.258;38.112;2022-08-19T11:36:33;34.65;;;10.57;;
64649;SDS011;51061;45.258;38.112;2022-08-19T11:39:04;24.27;;;9.57;;
64649;SDS011;51061;45.258;38.112;2022-08-19T11:41:31;34.85;;;9.73;;
64649;SDS011;51061;45.258;38.112;2022-08-19T11:43:57;30.23;;;10.48;;
64649;SDS011;51061;45.258;38.112;2022-08-19T11:46:24;33.53;;;10.20;;
64649;SDS011;51061;45.258;38.112;2022-08-19T11:48:51;33.83;;;9.85;;
64649;SDS011;51061;45.258;38.112;2022-08-19T11:51:19;29.10;;;10.57;;
64649;SDS011;51061;45.258;38.112;2022-08-19T11:53:47;42.35;;;12.90;;
64649;SDS011;51061;45.258;38.112;2022-08-19T11:56:16;43.13;;;11.85;;
64649;SDS011;51061;45.258;38.112;2022-08-19T11:58:44;42.20;;;11.85;;
64649;SDS011;51061;45.258;38.112;2022-08-19T12:01:11;39.60;;;11.05;;
64649;SDS011;51061;45.258;38.112;2022-08-19T12:03:42;32.50;;;10.05;;
64649;SDS011;51061;45.258;38.112;2022-08-19T12:06:10;37.25;;;11.13;;
64649;SDS011;51061;45.258;38.112;2022-08-19T12:08:39;38.42;;;10.77;;
64649;SDS011;51061;45.258;38.112;2022-08-19T12:11:06;38.97;;;10.35;;
64649;SDS011;51061;45.258;38.112;2022-08-19T12:13:35;36.58;;;9.55;;
64649;SDS011;51061;45.258;38.112;2022-08-19T12:16:13;38.47;;;9.73;;
64649;SDS011;51061;45.258;38.112;2022-08-19T12:18:44;31.90;;;10.23;;
64649;SDS011;51061;45.258;38.112;2022-08-19T12:21:17;32.97;;;10.20;;
64649;SDS011;51061;45.258;38.112;2022-08-19T12:23:46;35.75;;;11.07;;
64649;SDS011;51061;45.258;38.112;2022-08-19T12:26:14;26.58;;;9.95;;
64649;SDS011;51061;45.258;38.112;2022-08-19T12:28:40;35.90;;;9.75;;
64649;SDS011;51061;45.258;38.112;2022-08-19T12:31:07;26.60;;;8.60;;
64649;SDS011;51061;45.258;38.112;2022-08-19T12:33:33;26.80;;;8.10;;
64649;SDS011;51061;45.258;38.112;2022-08-19T12:36:00;27.45;;;8.73;;
64649;SDS011;51061;45.258;38.112;2022-08-19T12:38:29;28.52;;;10.15;;
64649;SDS011;51061;45.258;38.112;2022-08-19T12:40:55;33.00;;;10.05;;
64649;SDS011;51061;45.258;38.112;2022-08-19T12:43:21;29.30;;;9.88;;
64649;SDS011;51061;45.258;38.112;2022-08-19T12:45:47;35.70;;;10.38;;
64649;SDS011;51061;45.258;38.112;2022-08-19T12:48:13;38.83;;;12.20;;
64649;SDS011;51061;45.258;38.112;2022-08-19T12:50:40;35.40;;;11.95;;
64649;SDS011;51061;45.258;38.112;2022-08-19T12:53:07;45.40;;;12.98;;
64649;SDS011;51061;45.258;38.112;2022-08-19T12:55:33;50.92;;;14.48;;
64649;SDS011;51061;45.258;38.112;2022-08-19T12:57:59;47.55;;;14.30;;
64649;SDS011;51061;45.258;38.112;2022-08-19T13:00:28;35.05;;;12.07;;
64649;SDS011;51061;45.258;38.112;2022-08-19T13:02:58;37.65;;;13.20;;
64649;SDS011;51061;45.258;38.112;2022-08-19T13:05:26;32.00;;;12.00;;
64649;SDS011;51061;45.258;38.112;2022-08-19T13:07:55;37.00;;;12.20;;
64649;SDS011;51061;45.258;38.112;2022-08-19T13:10:24;40.00;;;11.68;;
64649;SDS011;51061;45.258;38.112;2022-08-19T13:13:02;34.70;;;11.10;;
64649;SDS011;51061;45.258;38.112;2022-08-19T13:15:33;29.33;;;10.20;;
64649;SDS011;51061;45.258;38.112;2022-08-19T13:18:05;33.72;;;10.30;;
64649;SDS011;51061;45.258;38.112;2022-08-19T13:20:32;32.92;;;9.45;;
64649;SDS011;51061;45.258;38.112;2022-08-19T13:22:59;30.73;;;9.45;;
64649;SDS011;51061;45.258;38.112;2022-08-19T13:25:25;24.38;;;8.52;;
64649;SDS011;51061;45.258;38.112;2022-08-19T13:27:52;24.73;;;8.68;;
64649;SDS011;51061;45.258;38.112;2022-08-19T13:30:18;24.70;;;8.27;;
64649;SDS011;51061;45.258;38.112;2022-08-19T13:33:04;20.08;;;7.78;;
64649;SDS011;51061;45.258;38.112;2022-08-19T13:38:14;26.83;;;7.65;;
64649;SDS011;51061;45.258;38.112;2022-08-19T13:40:44;24.70;;;6.82;;
64649;SDS011;51061;45.258;38.112;2022-08-19T13:43:11;26.35;;;7.28;;
64649;SDS011;51061;45.258;38.112;2022-08-19T13:45:39;20.58;;;6.68;;
64649;SDS011;51061;45.258;38.112;2022-08-19T13:48:06;23.20;;;6.35;;
64649;SDS011;51061;45.258;38.112;2022-08-19T13:50:35;21.77;;;6.57;;
64649;SDS011;51061;45.258;38.112;2022-08-19T13:53:07;14.82;;;5.57;;
64649;SDS011;51061;45.258;38.112;2022-08-19T13:55:34;27.52;;;7.10;;
64649;SDS011;51061;45.258;38.112;2022-08-19T13:58:02;22.67;;;6.57;;
64649;SDS011;51061;45.258;38.112;2022-08-19T14:00:29;20.35;;;6.30;;
64649;SDS011;51061;45.258;38.112;2022-08-19T14:02:58;26.20;;;6.72;;
64649;SDS011;51061;45.258;38.112;2022-08-19T14:05:25;22.77;;;6.90;;
64649;SDS011;51061;45.258;38.112;2022-08-19T14:07:52;19.38;;;6.90;;
64649;SDS011;51061;45.258;38.112;2022-08-19T14:10:19;32.47;;;7.05;;
64649;SDS011;51061;45.258;38.112;2022-08-19T14:12:47;27.83;;;7.05;;
64649;SDS011;51061;45.258;38.112;2022-08-19T14:15:13;26.70;;;6.70;;
64649;SDS011;51061;45.258;38.112;2022-08-19T14:17:41;19.63;;;6.32;;
64649;SDS011;51061;45.258;38.112;2022-08-19T14:20:09;21.25;;;6.05;;
64649;SDS011;51061;45.258;38.112;2022-08-19T14:22:38;26.30;;;6.60;;
64649;SDS011;51061;45.258;38.112;2022-08-19T14:25:07;40.58;;;9.73;;
64649;SDS011;51061;45.258;38.112;2022-08-19T14:27:35;25.58;;;6.68;;
64649;SDS011;51061;45.258;38.112;2022-08-19T14:30:03;30.85;;;7.15;;
64649;SDS011;51061;45.258;38.112;2022-08-19T14:32:32;27.33;;;7.15;;
64649;SDS011;51061;45.258;38.112;2022-08-19T14:34:59;19.33;;;6.88;;
64649;SDS011;51061;45.258;38.112;2022-08-19T14:37:26;23.63;;;6.28;;